Bluffton, South Carolina
Current Conditions -  °F | °C
As of 7:50 AM on Saturday 01 Nov 2014 (Local Time) from KHXD Reporting Station
Few Clouds Few Clouds  
Wind Chill:   Ceiling: Unl
Heat Index:   Visibility: 10mi
Dew Point: -1°   Wind: 16mph
Humidity: 61%   Direction: 260°W
Pressure: 29.82"   Gusts: 35mph
Location:  32.24°N, 80.86°W
Report Text: KHXD 011150Z 26014G30KT 230V290 10SM FEW012 06/M01 A2982
Loading
Personal Weather Stations






























Interactive Weather Map
Tropical Storm Tracking
New forecast layout! Learn more

10-Day Weather Forecast

Advertisements
Track Severe Weather on mobile